sensor_id;sensor_type;location;lat;lon;timestamp;P1;durP1;ratioP1;P2;durP2;ratioP2
73296;SDS011;61524;50.938;11.396;2024-02-21T00:00:21;10.67;;;2.27;;
73296;SDS011;61524;50.938;11.396;2024-02-21T00:02:46;7.63;;;2.10;;
73296;SDS011;61524;50.938;11.396;2024-02-21T00:05:12;7.30;;;2.20;;
73296;SDS011;61524;50.938;11.396;2024-02-21T00:07:37;5.03;;;2.43;;
73296;SDS011;61524;50.938;11.396;2024-02-21T00:10:02;3.53;;;2.07;;
73296;SDS011;61524;50.938;11.396;2024-02-21T00:12:28;5.63;;;2.03;;
73296;SDS011;61524;50.938;11.396;2024-02-21T00:14:53;6.70;;;1.90;;
73296;SDS011;61524;50.938;11.396;2024-02-21T00:17:18;10.07;;;2.60;;
73296;SDS011;61524;50.938;11.396;2024-02-21T00:19:44;15.32;;;2.22;;
73296;SDS011;61524;50.938;11.396;2024-02-21T00:22:09;7.53;;;2.15;;
73296;SDS011;61524;50.938;11.396;2024-02-21T00:24:34;7.73;;;2.57;;
73296;SDS011;61524;50.938;11.396;2024-02-21T00:27:00;5.97;;;1.80;;
73296;SDS011;61524;50.938;11.396;2024-02-21T00:29:25;8.03;;;2.13;;
73296;SDS011;61524;50.938;11.396;2024-02-21T00:31:50;6.22;;;1.95;;
73296;SDS011;61524;50.938;11.396;2024-02-21T00:34:16;4.93;;;2.10;;
73296;SDS011;61524;50.938;11.396;2024-02-21T00:36:41;7.03;;;2.20;;
73296;SDS011;61524;50.938;11.396;2024-02-21T00:39:06;6.10;;;2.40;;
73296;SDS011;61524;50.938;11.396;2024-02-21T00:41:32;11.53;;;2.70;;
73296;SDS011;61524;50.938;11.396;2024-02-21T00:43:58;10.60;;;2.60;;
73296;SDS011;61524;50.938;11.396;2024-02-21T00:46:23;6.57;;;2.30;;
73296;SDS011;61524;50.938;11.396;2024-02-21T00:48:48;7.13;;;2.30;;
73296;SDS011;61524;50.938;11.396;2024-02-21T00:51:14;6.88;;;2.30;;
73296;SDS011;61524;50.938;11.396;2024-02-21T00:53:40;7.32;;;2.65;;
73296;SDS011;61524;50.938;11.396;2024-02-21T00:56:05;7.83;;;2.10;;
73296;SDS011;61524;50.938;11.396;2024-02-21T00:58:30;10.32;;;2.45;;
73296;SDS011;61524;50.938;11.396;2024-02-21T01:00:56;7.07;;;2.38;;
73296;SDS011;61524;50.938;11.396;2024-02-21T01:03:21;7.97;;;2.33;;
73296;SDS011;61524;50.938;11.396;2024-02-21T01:05:46;6.87;;;2.70;;
73296;SDS011;61524;50.938;11.396;2024-02-21T01:08:12;6.80;;;2.60;;
73296;SDS011;61524;50.938;11.396;2024-02-21T01:10:37;10.15;;;2.72;;
73296;SDS011;61524;50.938;11.396;2024-02-21T01:13:02;8.13;;;2.40;;
73296;SDS011;61524;50.938;11.396;2024-02-21T01:15:28;6.03;;;2.35;;
73296;SDS011;61524;50.938;11.396;2024-02-21T01:17:53;11.52;;;2.70;;
73296;SDS011;61524;50.938;11.396;2024-02-21T01:20:20;7.35;;;2.33;;
73296;SDS011;61524;50.938;11.396;2024-02-21T01:22:45;6.13;;;2.30;;
73296;SDS011;61524;50.938;11.396;2024-02-21T01:25:10;6.63;;;2.37;;
73296;SDS011;61524;50.938;11.396;2024-02-21T01:27:36;3.88;;;1.77;;
73296;SDS011;61524;50.938;11.396;2024-02-21T01:30:01;7.90;;;2.27;;
73296;SDS011;61524;50.938;11.396;2024-02-21T01:32:26;7.78;;;2.08;;
73296;SDS011;61524;50.938;11.396;2024-02-21T01:34:52;5.17;;;2.10;;
73296;SDS011;61524;50.938;11.396;2024-02-21T01:37:17;5.77;;;1.93;;
73296;SDS011;61524;50.938;11.396;2024-02-21T01:39:42;8.03;;;2.17;;
73296;SDS011;61524;50.938;11.396;2024-02-21T01:42:07;6.07;;;2.43;;
73296;SDS011;61524;50.938;11.396;2024-02-21T01:44:34;8.70;;;2.15;;
73296;SDS011;61524;50.938;11.396;2024-02-21T01:46:59;8.13;;;2.27;;
73296;SDS011;61524;50.938;11.396;2024-02-21T01:49:24;7.72;;;1.73;;
73296;SDS011;61524;50.938;11.396;2024-02-21T01:51:50;9.82;;;2.47;;
73296;SDS011;61524;50.938;11.396;2024-02-21T01:54:16;8.85;;;2.05;;
73296;SDS011;61524;50.938;11.396;2024-02-21T01:56:42;9.43;;;2.03;;
73296;SDS011;61524;50.938;11.396;2024-02-21T01:59:08;4.95;;;1.90;;
73296;SDS011;61524;50.938;11.396;2024-02-21T02:01:33;12.18;;;2.63;;
73296;SDS011;61524;50.938;11.396;2024-02-21T02:03:59;9.30;;;2.67;;
73296;SDS011;61524;50.938;11.396;2024-02-21T02:06:24;5.00;;;1.80;;
73296;SDS011;61524;50.938;11.396;2024-02-21T02:08:49;11.52;;;2.13;;
73296;SDS011;61524;50.938;11.396;2024-02-21T02:11:15;5.78;;;2.08;;
73296;SDS011;61524;50.938;11.396;2024-02-21T02:13:40;6.20;;;2.22;;
73296;SDS011;61524;50.938;11.396;2024-02-21T02:16:05;5.30;;;1.53;;
73296;SDS011;61524;50.938;11.396;2024-02-21T02:18:31;5.32;;;2.05;;
73296;SDS011;61524;50.938;11.396;2024-02-21T02:20:56;6.70;;;2.10;;
73296;SDS011;61524;50.938;11.396;2024-02-21T02:23:29;5.72;;;2.22;;
73296;SDS011;61524;50.938;11.396;2024-02-21T02:25:54;7.90;;;2.20;;
73296;SDS011;61524;50.938;11.396;2024-02-21T02:28:20;7.47;;;2.42;;
73296;SDS011;61524;50.938;11.396;2024-02-21T02:30:46;5.68;;;2.35;;
73296;SDS011;61524;50.938;11.396;2024-02-21T02:33:11;8.13;;;2.13;;
73296;SDS011;61524;50.938;11.396;2024-02-21T02:35:36;6.88;;;2.05;;
73296;SDS011;61524;50.938;11.396;2024-02-21T02:38:02;6.33;;;2.20;;
73296;SDS011;61524;50.938;11.396;2024-02-21T02:40:27;5.93;;;1.90;;
73296;SDS011;61524;50.938;11.396;2024-02-21T02:42:52;8.38;;;2.00;;
73296;SDS011;61524;50.938;11.396;2024-02-21T02:45:20;6.47;;;2.38;;
73296;SDS011;61524;50.938;11.396;2024-02-21T02:47:45;7.30;;;2.47;;
73296;SDS011;61524;50.938;11.396;2024-02-21T02:50:11;7.70;;;2.38;;
73296;SDS011;61524;50.938;11.396;2024-02-21T02:52:36;6.50;;;2.33;;
73296;SDS011;61524;50.938;11.396;2024-02-21T02:55:02;10.43;;;2.08;;
73296;SDS011;61524;50.938;11.396;2024-02-21T02:57:27;4.82;;;1.92;;
73296;SDS011;61524;50.938;11.396;2024-02-21T02:59:52;9.23;;;2.37;;
73296;SDS011;61524;50.938;11.396;2024-02-21T03:02:18;6.80;;;2.17;;
73296;SDS011;61524;50.938;11.396;2024-02-21T03:04:43;6.82;;;2.33;;
73296;SDS011;61524;50.938;11.396;2024-02-21T03:07:09;7.05;;;2.58;;
73296;SDS011;61524;50.938;11.396;2024-02-21T03:09:36;6.60;;;1.95;;
73296;SDS011;61524;50.938;11.396;2024-02-21T03:12:01;5.68;;;1.85;;
73296;SDS011;61524;50.938;11.396;2024-02-21T03:14:30;5.32;;;2.17;;
73296;SDS011;61524;50.938;11.396;2024-02-21T03:16:55;8.87;;;2.30;;
73296;SDS011;61524;50.938;11.396;2024-02-21T03:19:21;8.13;;;2.20;;
73296;SDS011;61524;50.938;11.396;2024-02-21T03:21:46;6.07;;;2.17;;
73296;SDS011;61524;50.938;11.396;2024-02-21T03:24:11;9.50;;;2.55;;
73296;SDS011;61524;50.938;11.396;2024-02-21T03:26:36;6.80;;;2.13;;
73296;SDS011;61524;50.938;11.396;2024-02-21T03:29:03;8.70;;;2.17;;
73296;SDS011;61524;50.938;11.396;2024-02-21T03:31:28;6.13;;;2.22;;
73296;SDS011;61524;50.938;11.396;2024-02-21T03:33:53;5.60;;;1.92;;
73296;SDS011;61524;50.938;11.396;2024-02-21T03:36:19;5.57;;;2.17;;
73296;SDS011;61524;50.938;11.396;2024-02-21T03:38:44;8.87;;;2.40;;
73296;SDS011;61524;50.938;11.396;2024-02-21T03:41:10;7.82;;;2.50;;
73296;SDS011;61524;50.938;11.396;2024-02-21T03:43:37;9.52;;;2.60;;
73296;SDS011;61524;50.938;11.396;2024-02-21T03:48:27;7.00;;;1.90;;
73296;SDS011;61524;50.938;11.396;2024-02-21T03:50:52;6.50;;;1.90;;
73296;SDS011;61524;50.938;11.396;2024-02-21T03:53:18;6.33;;;2.30;;
73296;SDS011;61524;50.938;11.396;2024-02-21T03:55:43;6.13;;;2.08;;
73296;SDS011;61524;50.938;11.396;2024-02-21T03:58:09;7.78;;;2.53;;
73296;SDS011;61524;50.938;11.396;2024-02-21T04:00:34;6.73;;;2.90;;
73296;SDS011;61524;50.938;11.396;2024-02-21T04:02:59;5.85;;;1.92;;
73296;SDS011;61524;50.938;11.396;2024-02-21T04:05:25;12.05;;;2.65;;
73296;SDS011;61524;50.938;11.396;2024-02-21T04:07:50;6.53;;;2.10;;
73296;SDS011;61524;50.938;11.396;2024-02-21T04:10:16;6.45;;;2.58;;
73296;SDS011;61524;50.938;11.396;2024-02-21T04:12:42;7.90;;;2.43;;
73296;SDS011;61524;50.938;11.396;2024-02-21T04:15:07;5.07;;;2.40;;
73296;SDS011;61524;50.938;11.396;2024-02-21T04:17:33;6.28;;;2.42;;
73296;SDS011;61524;50.938;11.396;2024-02-21T04:20:02;8.32;;;2.25;;
73296;SDS011;61524;50.938;11.396;2024-02-21T04:22:30;7.53;;;2.47;;
73296;SDS011;61524;50.938;11.396;2024-02-21T04:24:55;7.75;;;2.58;;
73296;SDS011;61524;50.938;11.396;2024-02-21T04:27:20;7.60;;;2.50;;
73296;SDS011;61524;50.938;11.396;2024-02-21T04:29:46;6.93;;;2.22;;
73296;SDS011;61524;50.938;11.396;2024-02-21T04:32:11;7.47;;;2.10;;
73296;SDS011;61524;50.938;11.396;2024-02-21T04:34:36;7.30;;;2.70;;
73296;SDS011;61524;50.938;11.396;2024-02-21T04:37:02;6.63;;;2.30;;
73296;SDS011;61524;50.938;11.396;2024-02-21T04:39:27;6.47;;;3.03;;
73296;SDS011;61524;50.938;11.396;2024-02-21T04:41:52;7.07;;;2.40;;
73296;SDS011;61524;50.938;11.396;2024-02-21T04:44:17;7.07;;;2.60;;
73296;SDS011;61524;50.938;11.396;2024-02-21T04:46:46;9.30;;;2.70;;
73296;SDS011;61524;50.938;11.396;2024-02-21T04:49:11;7.30;;;2.17;;
73296;SDS011;61524;50.938;11.396;2024-02-21T04:51:37;6.17;;;1.93;;
73296;SDS011;61524;50.938;11.396;2024-02-21T04:54:02;8.15;;;2.50;;
73296;SDS011;61524;50.938;11.396;2024-02-21T04:56:29;7.30;;;2.15;;
73296;SDS011;61524;50.938;11.396;2024-02-21T04:58:54;8.90;;;2.17;;
73296;SDS011;61524;50.938;11.396;2024-02-21T05:01:19;7.27;;;1.97;;
73296;SDS011;61524;50.938;11.396;2024-02-21T05:03:45;5.38;;;2.33;;
73296;SDS011;61524;50.938;11.396;2024-02-21T05:06:10;7.35;;;2.40;;
73296;SDS011;61524;50.938;11.396;2024-02-21T05:08:35;9.00;;;2.20;;
73296;SDS011;61524;50.938;11.396;2024-02-21T05:11:00;6.77;;;2.67;;
73296;SDS011;61524;50.938;11.396;2024-02-21T05:13:26;8.80;;;3.05;;
73296;SDS011;61524;50.938;11.396;2024-02-21T05:15:51;7.50;;;2.20;;
73296;SDS011;61524;50.938;11.396;2024-02-21T05:18:16;7.83;;;2.63;;
73296;SDS011;61524;50.938;11.396;2024-02-21T05:20:42;6.80;;;2.20;;
73296;SDS011;61524;50.938;11.396;2024-02-21T05:23:07;8.07;;;2.35;;
73296;SDS011;61524;50.938;11.396;2024-02-21T05:25:32;9.90;;;2.83;;
73296;SDS011;61524;50.938;11.396;2024-02-21T05:27:57;8.30;;;2.50;;
73296;SDS011;61524;50.938;11.396;2024-02-21T05:30:27;7.43;;;2.38;;
73296;SDS011;61524;50.938;11.396;2024-02-21T05:32:52;7.47;;;2.70;;
73296;SDS011;61524;50.938;11.396;2024-02-21T05:35:17;6.83;;;2.40;;
73296;SDS011;61524;50.938;11.396;2024-02-21T05:37:42;6.10;;;2.55;;
73296;SDS011;61524;50.938;11.396;2024-02-21T05:40:08;7.90;;;2.67;;
73296;SDS011;61524;50.938;11.396;2024-02-21T05:42:33;7.22;;;2.80;;
73296;SDS011;61524;50.938;11.396;2024-02-21T05:44:59;7.27;;;3.07;;
73296;SDS011;61524;50.938;11.396;2024-02-21T05:47:24;6.37;;;2.60;;
73296;SDS011;61524;50.938;11.396;2024-02-21T05:49:49;4.82;;;2.10;;
73296;SDS011;61524;50.938;11.396;2024-02-21T05:52:18;6.13;;;2.45;;
73296;SDS011;61524;50.938;11.396;2024-02-21T05:54:43;11.00;;;3.20;;
73296;SDS011;61524;50.938;11.396;2024-02-21T05:57:09;6.13;;;2.57;;
73296;SDS011;61524;50.938;11.396;2024-02-21T05:59:34;8.23;;;2.88;;
73296;SDS011;61524;50.938;11.396;2024-02-21T06:02:01;7.40;;;3.03;;
73296;SDS011;61524;50.938;11.396;2024-02-21T06:04:28;5.43;;;2.45;;
73296;SDS011;61524;50.938;11.396;2024-02-21T06:06:54;7.93;;;3.13;;
73296;SDS011;61524;50.938;11.396;2024-02-21T06:09:19;9.50;;;3.27;;
73296;SDS011;61524;50.938;11.396;2024-02-21T06:11:44;6.77;;;2.67;;
73296;SDS011;61524;50.938;11.396;2024-02-21T06:14:11;5.05;;;2.42;;
73296;SDS011;61524;50.938;11.396;2024-02-21T06:16:36;9.35;;;3.22;;
73296;SDS011;61524;50.938;11.396;2024-02-21T06:19:01;8.30;;;2.83;;
73296;SDS011;61524;50.938;11.396;2024-02-21T06:21:31;7.45;;;3.30;;
73296;SDS011;61524;50.938;11.396;2024-02-21T06:23:56;7.72;;;2.63;;
73296;SDS011;61524;50.938;11.396;2024-02-21T06:26:21;8.13;;;2.80;;
73296;SDS011;61524;50.938;11.396;2024-02-21T06:28:47;8.50;;;2.83;;
73296;SDS011;61524;50.938;11.396;2024-02-21T06:31:12;8.13;;;2.97;;
73296;SDS011;61524;50.938;11.396;2024-02-21T06:33:38;7.45;;;3.60;;
73296;SDS011;61524;50.938;11.396;2024-02-21T06:36:03;4.63;;;2.17;;
73296;SDS011;61524;50.938;11.396;2024-02-21T06:38:29;6.85;;;3.28;;
73296;SDS011;61524;50.938;11.396;2024-02-21T06:40:54;6.15;;;2.75;;
73296;SDS011;61524;50.938;11.396;2024-02-21T06:43:20;7.07;;;2.92;;
73296;SDS011;61524;50.938;11.396;2024-02-21T06:45:45;6.90;;;2.67;;
73296;SDS011;61524;50.938;11.396;2024-02-21T06:48:15;6.85;;;3.10;;
73296;SDS011;61524;50.938;11.396;2024-02-21T06:50:41;9.15;;;3.30;;
73296;SDS011;61524;50.938;11.396;2024-02-21T06:53:06;5.17;;;2.50;;
73296;SDS011;61524;50.938;11.396;2024-02-21T06:55:31;8.80;;;3.40;;
73296;SDS011;61524;50.938;11.396;2024-02-21T06:57:57;10.60;;;3.97;;
73296;SDS011;61524;50.938;11.396;2024-02-21T07:00:22;9.90;;;3.13;;
73296;SDS011;61524;50.938;11.396;2024-02-21T07:02:48;11.55;;;3.00;;
73296;SDS011;61524;50.938;11.396;2024-02-21T07:05:13;11.55;;;2.47;;
73296;SDS011;61524;50.938;11.396;2024-02-21T07:07:38;5.83;;;2.60;;
73296;SDS011;61524;50.938;11.396;2024-02-21T07:10:05;6.47;;;2.80;;
73296;SDS011;61524;50.938;11.396;2024-02-21T07:12:30;7.78;;;3.17;;
73296;SDS011;61524;50.938;11.396;2024-02-21T07:14:56;5.47;;;2.58;;
73296;SDS011;61524;50.938;11.396;2024-02-21T07:17:21;8.47;;;2.80;;
73296;SDS011;61524;50.938;11.396;2024-02-21T07:19:46;5.68;;;2.63;;
73296;SDS011;61524;50.938;11.396;2024-02-21T07:22:12;10.57;;;2.27;;
73296;SDS011;61524;50.938;11.396;2024-02-21T07:24:37;6.13;;;2.42;;
73296;SDS011;61524;50.938;11.396;2024-02-21T07:27:04;8.40;;;2.53;;
73296;SDS011;61524;50.938;11.396;2024-02-21T07:29:29;9.75;;;3.05;;
73296;SDS011;61524;50.938;11.396;2024-02-21T07:31:55;6.05;;;2.25;;
73296;SDS011;61524;50.938;11.396;2024-02-21T07:34:20;8.07;;;3.23;;
73296;SDS011;61524;50.938;11.396;2024-02-21T07:36:46;7.55;;;2.75;;
73296;SDS011;61524;50.938;11.396;2024-02-21T07:39:11;6.25;;;2.20;;
73296;SDS011;61524;50.938;11.396;2024-02-21T07:41:37;7.32;;;2.50;;
73296;SDS011;61524;50.938;11.396;2024-02-21T07:46:29;5.57;;;2.40;;
73296;SDS011;61524;50.938;11.396;2024-02-21T07:48:54;5.30;;;2.23;;
73296;SDS011;61524;50.938;11.396;2024-02-21T07:51:19;7.30;;;2.30;;
73296;SDS011;61524;50.938;11.396;2024-02-21T07:53:45;6.68;;;2.35;;
73296;SDS011;61524;50.938;11.396;2024-02-21T07:56:11;8.90;;;2.40;;
73296;SDS011;61524;50.938;11.396;2024-02-21T07:58:37;7.97;;;2.33;;
73296;SDS011;61524;50.938;11.396;2024-02-21T08:01:02;5.80;;;2.57;;
73296;SDS011;61524;50.938;11.396;2024-02-21T08:03:27;5.05;;;2.10;;
73296;SDS011;61524;50.938;11.396;2024-02-21T08:05:53;6.47;;;2.30;;
73296;SDS011;61524;50.938;11.396;2024-02-21T08:08:18;8.55;;;2.35;;
73296;SDS011;61524;50.938;11.396;2024-02-21T08:10:46;5.25;;;2.00;;
73296;SDS011;61524;50.938;11.396;2024-02-21T08:13:11;8.05;;;2.50;;
73296;SDS011;61524;50.938;11.396;2024-02-21T08:15:36;5.45;;;2.10;;
73296;SDS011;61524;50.938;11.396;2024-02-21T08:18:04;6.93;;;2.22;;
73296;SDS011;61524;50.938;11.396;2024-02-21T08:20:29;8.17;;;2.50;;
73296;SDS011;61524;50.938;11.396;2024-02-21T08:22:55;5.05;;;2.15;;
73296;SDS011;61524;50.938;11.396;2024-02-21T08:25:20;7.43;;;2.87;;
73296;SDS011;61524;50.938;11.396;2024-02-21T08:27:45;6.15;;;2.45;;
73296;SDS011;61524;50.938;11.396;2024-02-21T08:30:11;8.93;;;2.42;;
73296;SDS011;61524;50.938;11.396;2024-02-21T08:32:36;7.45;;;2.20;;
73296;SDS011;61524;50.938;11.396;2024-02-21T08:35:02;8.15;;;2.75;;
73296;SDS011;61524;50.938;11.396;2024-02-21T08:37:28;8.93;;;2.13;;
73296;SDS011;61524;50.938;11.396;2024-02-21T08:39:53;4.97;;;2.50;;
73296;SDS011;61524;50.938;11.396;2024-02-21T08:42:19;5.22;;;2.30;;
73296;SDS011;61524;50.938;11.396;2024-02-21T08:44:44;7.22;;;2.50;;
73296;SDS011;61524;50.938;11.396;2024-02-21T08:47:09;8.52;;;2.80;;
73296;SDS011;61524;50.938;11.396;2024-02-21T08:49:35;8.90;;;3.17;;
73296;SDS011;61524;50.938;11.396;2024-02-21T08:52:01;5.65;;;2.60;;
73296;SDS011;61524;50.938;11.396;2024-02-21T08:54:27;4.68;;;2.30;;
73296;SDS011;61524;50.938;11.396;2024-02-21T08:56:55;7.13;;;2.08;;
73296;SDS011;61524;50.938;11.396;2024-02-21T08:59:21;5.95;;;2.10;;
73296;SDS011;61524;50.938;11.396;2024-02-21T09:01:47;8.20;;;2.90;;
73296;SDS011;61524;50.938;11.396;2024-02-21T09:04:12;6.20;;;2.53;;
73296;SDS011;61524;50.938;11.396;2024-02-21T09:06:37;6.75;;;2.25;;
73296;SDS011;61524;50.938;11.396;2024-02-21T09:09:06;6.28;;;2.63;;
73296;SDS011;61524;50.938;11.396;2024-02-21T09:11:33;7.90;;;2.30;;
73296;SDS011;61524;50.938;11.396;2024-02-21T09:13:58;6.63;;;2.67;;
73296;SDS011;61524;50.938;11.396;2024-02-21T09:16:23;7.53;;;2.70;;
73296;SDS011;61524;50.938;11.396;2024-02-21T09:18:49;8.17;;;2.83;;
73296;SDS011;61524;50.938;11.396;2024-02-21T09:21:14;6.28;;;2.45;;
73296;SDS011;61524;50.938;11.396;2024-02-21T09:23:39;5.80;;;2.70;;
73296;SDS011;61524;50.938;11.396;2024-02-21T09:26:05;7.27;;;2.93;;
73296;SDS011;61524;50.938;11.396;2024-02-21T09:28:30;8.05;;;2.53;;
73296;SDS011;61524;50.938;11.396;2024-02-21T09:30:55;8.20;;;3.07;;
73296;SDS011;61524;50.938;11.396;2024-02-21T09:33:21;8.00;;;2.57;;
73296;SDS011;61524;50.938;11.396;2024-02-21T09:35:46;9.30;;;2.90;;
73296;SDS011;61524;50.938;11.396;2024-02-21T09:38:12;6.47;;;2.00;;
73296;SDS011;61524;50.938;11.396;2024-02-21T09:40:37;6.25;;;2.50;;
73296;SDS011;61524;50.938;11.396;2024-02-21T09:43:04;10.23;;;2.47;;
73296;SDS011;61524;50.938;11.396;2024-02-21T09:45:33;6.38;;;2.05;;
73296;SDS011;61524;50.938;11.396;2024-02-21T09:50:43;6.38;;;1.95;;
73296;SDS011;61524;50.938;11.396;2024-02-21T09:53:09;6.28;;;2.05;;
73296;SDS011;61524;50.938;11.396;2024-02-21T09:55:36;5.93;;;2.03;;
73296;SDS011;61524;50.938;11.396;2024-02-21T09:58:05;5.60;;;2.28;;
73296;SDS011;61524;50.938;11.396;2024-02-21T10:00:30;5.43;;;1.73;;
73296;SDS011;61524;50.938;11.396;2024-02-21T10:02:55;8.20;;;2.13;;
73296;SDS011;61524;50.938;11.396;2024-02-21T10:05:21;9.55;;;1.98;;
73296;SDS011;61524;50.938;11.396;2024-02-21T10:07:46;5.32;;;1.90;;
73296;SDS011;61524;50.938;11.396;2024-02-21T10:10:13;4.68;;;1.70;;
73296;SDS011;61524;50.938;11.396;2024-02-21T10:12:52;4.85;;;1.88;;
73296;SDS011;61524;50.938;11.396;2024-02-21T10:15:20;3.35;;;1.50;;
73296;SDS011;61524;50.938;11.396;2024-02-21T10:20:11;3.35;;;1.40;;
73296;SDS011;61524;50.938;11.396;2024-02-21T10:22:38;4.75;;;1.75;;
73296;SDS011;61524;50.938;11.396;2024-02-21T10:25:22;4.93;;;1.95;;
73296;SDS011;61524;50.938;11.396;2024-02-21T10:27:47;4.20;;;1.80;;
73296;SDS011;61524;50.938;11.396;2024-02-21T10:30:13;3.88;;;1.55;;
73296;SDS011;61524;50.938;11.396;2024-02-21T10:32:51;8.70;;;2.15;;
73296;SDS011;61524;50.938;11.396;2024-02-21T10:35:28;3.72;;;1.58;;
73296;SDS011;61524;50.938;11.396;2024-02-21T10:37:54;3.63;;;1.60;;
73296;SDS011;61524;50.938;11.396;2024-02-21T10:40:24;5.15;;;1.95;;
73296;SDS011;61524;50.938;11.396;2024-02-21T10:42:51;6.22;;;2.03;;
73296;SDS011;61524;50.938;11.396;2024-02-21T10:45:18;5.25;;;1.77;;
73296;SDS011;61524;50.938;11.396;2024-02-21T10:47:44;4.13;;;1.77;;
73296;SDS011;61524;50.938;11.396;2024-02-21T10:50:14;6.22;;;1.65;;
73296;SDS011;61524;50.938;11.396;2024-02-21T10:55:20;5.10;;;1.90;;
73296;SDS011;61524;50.938;11.396;2024-02-21T10:57:46;4.68;;;2.22;;
73296;SDS011;61524;50.938;11.396;2024-02-21T11:00:13;7.90;;;2.78;;
73296;SDS011;61524;50.938;11.396;2024-02-21T11:02:40;5.05;;;2.05;;
73296;SDS011;61524;50.938;11.396;2024-02-21T11:05:06;5.00;;;1.80;;
73296;SDS011;61524;50.938;11.396;2024-02-21T11:07:32;3.95;;;1.85;;
73296;SDS011;61524;50.938;11.396;2024-02-21T11:09:58;4.80;;;1.55;;
73296;SDS011;61524;50.938;11.396;2024-02-21T11:12:24;4.30;;;1.90;;
73296;SDS011;61524;50.938;11.396;2024-02-21T11:14:50;4.57;;;1.60;;
73296;SDS011;61524;50.938;11.396;2024-02-21T11:17:16;7.30;;;1.80;;
73296;SDS011;61524;50.938;11.396;2024-02-21T11:19:42;6.40;;;1.90;;
73296;SDS011;61524;50.938;11.396;2024-02-21T11:22:13;5.32;;;2.15;;
73296;SDS011;61524;50.938;11.396;2024-02-21T11:24:39;6.38;;;1.83;;
73296;SDS011;61524;50.938;11.396;2024-02-21T11:27:20;4.03;;;1.70;;
73296;SDS011;61524;50.938;11.396;2024-02-21T11:32:11;5.20;;;2.13;;
73296;SDS011;61524;50.938;11.396;2024-02-21T11:34:37;4.75;;;1.60;;
73296;SDS011;61524;50.938;11.396;2024-02-21T11:37:05;4.30;;;1.80;;
73296;SDS011;61524;50.938;11.396;2024-02-21T11:42:03;4.32;;;2.22;;
73296;SDS011;61524;50.938;11.396;2024-02-21T11:44:30;5.93;;;2.60;;
73296;SDS011;61524;50.938;11.396;2024-02-21T11:46:55;4.07;;;1.80;;
73296;SDS011;61524;50.938;11.396;2024-02-21T11:49:20;4.78;;;1.88;;
73296;SDS011;61524;50.938;11.396;2024-02-21T11:51:46;4.03;;;1.98;;
73296;SDS011;61524;50.938;11.396;2024-02-21T11:54:11;4.13;;;2.40;;
73296;SDS011;61524;50.938;11.396;2024-02-21T11:56:38;4.68;;;1.80;;
73296;SDS011;61524;50.938;11.396;2024-02-21T11:59:03;5.45;;;2.17;;
73296;SDS011;61524;50.938;11.396;2024-02-21T12:01:30;7.03;;;2.40;;
73296;SDS011;61524;50.938;11.396;2024-02-21T12:03:56;5.72;;;2.17;;
73296;SDS011;61524;50.938;11.396;2024-02-21T12:06:21;3.70;;;1.73;;
73296;SDS011;61524;50.938;11.396;2024-02-21T12:08:47;5.85;;;2.25;;
73296;SDS011;61524;50.938;11.396;2024-02-21T12:11:16;5.45;;;2.03;;
73296;SDS011;61524;50.938;11.396;2024-02-21T12:13:42;7.10;;;2.35;;
73296;SDS011;61524;50.938;11.396;2024-02-21T12:16:07;10.87;;;2.07;;
73296;SDS011;61524;50.938;11.396;2024-02-21T12:18:32;6.68;;;2.17;;
73296;SDS011;61524;50.938;11.396;2024-02-21T12:20:58;4.80;;;1.97;;
73296;SDS011;61524;50.938;11.396;2024-02-21T12:23:26;6.20;;;1.95;;
73296;SDS011;61524;50.938;11.396;2024-02-21T12:25:52;4.18;;;1.60;;
73296;SDS011;61524;50.938;11.396;2024-02-21T12:28:19;6.88;;;1.88;;
73296;SDS011;61524;50.938;11.396;2024-02-21T12:30:44;5.03;;;1.80;;
73296;SDS011;61524;50.938;11.396;2024-02-21T12:33:10;6.50;;;2.10;;
73296;SDS011;61524;50.938;11.396;2024-02-21T12:35:35;7.13;;;2.00;;
73296;SDS011;61524;50.938;11.396;2024-02-21T12:38:00;4.20;;;1.90;;
73296;SDS011;61524;50.938;11.396;2024-02-21T12:40:26;4.32;;;1.70;;
73296;SDS011;61524;50.938;11.396;2024-02-21T12:42:57;6.45;;;2.00;;
73296;SDS011;61524;50.938;11.396;2024-02-21T12:45:22;7.20;;;2.45;;
73296;SDS011;61524;50.938;11.396;2024-02-21T12:47:48;5.45;;;1.58;;
73296;SDS011;61524;50.938;11.396;2024-02-21T12:50:13;5.53;;;1.50;;
73296;SDS011;61524;50.938;11.396;2024-02-21T12:52:40;3.83;;;1.55;;
73296;SDS011;61524;50.938;11.396;2024-02-21T12:55:05;6.18;;;1.70;;
73296;SDS011;61524;50.938;11.396;2024-02-21T12:57:31;8.27;;;2.45;;
73296;SDS011;61524;50.938;11.396;2024-02-21T12:59:56;4.60;;;1.70;;
73296;SDS011;61524;50.938;11.396;2024-02-21T13:02:21;5.90;;;1.70;;
73296;SDS011;61524;50.938;11.396;2024-02-21T13:04:46;3.10;;;1.27;;
73296;SDS011;61524;50.938;11.396;2024-02-21T13:07:12;4.90;;;1.70;;
73296;SDS011;61524;50.938;11.396;2024-02-21T13:09:37;6.67;;;1.80;;
73296;SDS011;61524;50.938;11.396;2024-02-21T13:12:02;7.05;;;1.70;;
73296;SDS011;61524;50.938;11.396;2024-02-21T13:14:28;5.15;;;1.77;;
73296;SDS011;61524;50.938;11.396;2024-02-21T13:16:53;3.63;;;1.60;;
73296;SDS011;61524;50.938;11.396;2024-02-21T13:19:18;3.43;;;1.50;;
73296;SDS011;61524;50.938;11.396;2024-02-21T13:21:44;5.77;;;1.93;;
73296;SDS011;61524;50.938;11.396;2024-02-21T13:24:09;8.60;;;2.07;;
73296;SDS011;61524;50.938;11.396;2024-02-21T13:26:34;5.23;;;2.23;;
73296;SDS011;61524;50.938;11.396;2024-02-21T13:29:00;4.75;;;1.70;;
73296;SDS011;61524;50.938;11.396;2024-02-21T13:31:25;4.72;;;1.70;;
73296;SDS011;61524;50.938;11.396;2024-02-21T13:33:50;4.30;;;1.70;;
73296;SDS011;61524;50.938;11.396;2024-02-21T13:36:15;3.90;;;1.33;;
73296;SDS011;61524;50.938;11.396;2024-02-21T13:38:41;5.95;;;1.58;;
73296;SDS011;61524;50.938;11.396;2024-02-21T13:41:06;4.07;;;1.47;;
73296;SDS011;61524;50.938;11.396;2024-02-21T13:43:32;4.15;;;1.83;;
73296;SDS011;61524;50.938;11.396;2024-02-21T13:45:58;5.95;;;1.70;;
73296;SDS011;61524;50.938;11.396;2024-02-21T13:48:24;5.70;;;2.00;;
73296;SDS011;61524;50.938;11.396;2024-02-21T13:50:49;6.82;;;2.25;;
73296;SDS011;61524;50.938;11.396;2024-02-21T13:53:15;6.65;;;2.28;;
73296;SDS011;61524;50.938;11.396;2024-02-21T13:55:40;3.63;;;1.60;;
73296;SDS011;61524;50.938;11.396;2024-02-21T13:58:06;4.78;;;1.95;;
73296;SDS011;61524;50.938;11.396;2024-02-21T14:00:31;3.90;;;1.83;;
73296;SDS011;61524;50.938;11.396;2024-02-21T14:02:59;6.57;;;1.95;;
73296;SDS011;61524;50.938;11.396;2024-02-21T14:05:26;5.07;;;1.67;;
73296;SDS011;61524;50.938;11.396;2024-02-21T14:07:51;10.05;;;2.00;;
73296;SDS011;61524;50.938;11.396;2024-02-21T14:10:19;5.53;;;1.83;;
73296;SDS011;61524;50.938;11.396;2024-02-21T14:12:44;5.13;;;1.63;;
73296;SDS011;61524;50.938;11.396;2024-02-21T14:15:10;5.50;;;1.90;;
73296;SDS011;61524;50.938;11.396;2024-02-21T14:17:35;4.95;;;1.80;;
73296;SDS011;61524;50.938;11.396;2024-02-21T14:20:00;5.97;;;1.77;;
73296;SDS011;61524;50.938;11.396;2024-02-21T14:22:26;5.28;;;2.10;;
73296;SDS011;61524;50.938;11.396;2024-02-21T14:24:51;5.63;;;1.80;;
73296;SDS011;61524;50.938;11.396;2024-02-21T14:27:16;4.95;;;1.55;;
73296;SDS011;61524;50.938;11.396;2024-02-21T14:29:42;4.82;;;1.88;;
73296;SDS011;61524;50.938;11.396;2024-02-21T14:32:07;3.67;;;1.43;;
73296;SDS011;61524;50.938;11.396;2024-02-21T14:34:34;7.63;;;2.03;;
73296;SDS011;61524;50.938;11.396;2024-02-21T14:37:00;6.37;;;1.50;;
73296;SDS011;61524;50.938;11.396;2024-02-21T14:39:25;4.33;;;1.57;;
73296;SDS011;61524;50.938;11.396;2024-02-21T14:41:50;5.63;;;1.60;;